Tiempo atmosférico en la estación meteorológica de Viso Del Marqués, Ciudad Real (778 m.)



Fecha
DESCASC
Temp. máxima en grados centígrados (hora)
DESCASC
Temp. mínima en grados centígrados (hora)
DESCASC
Temp. media en grados centígrados
DESCASC
Racha de viento máxima en m/sg (hora)
DESCASC
Velocidad máxima media en intervalos de 10 minutos(hora)
DESCASC
Precipitaciones diarias en mm
DESCASC
Precipitaciones de 00:00 a 06:00 en mm
DESCASC
Precipitaciones de 06:00 a 12:00 en mm
DESCASC
Precipitaciones de 12:00 a 18:00 en mm
DESCASC
Precipitaciones de 18:00 a 24:00 en mm
DESCASC
05-04-2020 17.1 (16:40) 5.3 (04:50) 11.2 8.89 (18:40) 6.11 (17:20) 0 0 0 0 0
04-04-2020 15.7 (15:00) 2.9 (08:10) 9.3 9.44 (17:40) 6.94 (17:40) 0 0 0 0 0
03-04-2020 14.9 (17:30) 0 (06:40) 7.4 6.67 (17:10) 2.78 (11:50) 0 0 0 0 0
02-04-2020 8.3 (15:20) 2 (00:00) 5.2 9.72 (16:40) 5.83 (16:40) 3.6 0 0.7 2.9 0
01-04-2020 11.3 (17:50) 2.7 (00:00) 7 10.28 (07:10) 7.22 (12:40) 0 0 0 0 0
31-03-2020 11.3 (15:10) 2.1 (00:00) 6.7 10.83 (21:30) 7.22 (19:50) 21.2 3.2 0.6 7.8 9.6
30-03-2020 11.4 (11:50) 2.3 (00:00) 6.8 7.5 (20:20) 4.72 (20:20) 16 0 0 6.4 9.6
29-03-2020 15.2 (16:30) -0.6 (-00:0) 7.3 7.5 (18:50) 4.72 (19:30) 0 0 0 0 0
28-03-2020 12.6 (16:00) -1.7 (-00:0) 5.5 7.5 (18:40) 4.72 (18:40) 0 0 0 0 0
27-03-2020 10.7 (11:30) 0 (00:00) 5.3 13.06 (09:40) 7.78 (11:50) 0 0 0 0 0
26-03-2020 15.2 (15:10) 4 (00:00) 9.6 11.11 (16:40) 6.11 (17:50) 0 0 0 0 0
25-03-2020 13.7 (15:40) 0.7 (00:00) 7.2 7.78 (00:40) 4.17 (21:30) 0 0 0 0 0
24-03-2020 11.7 (16:00) 3 (00:00) 7.3 13.61 (16:10) 7.5 (12:00) 0 0 0 0 0
23-03-2020 12.6 (15:30) 1.8 (00:00) 7.2 11.39 (16:10) 4.72 (18:10) 3 0 0 1.7 1.3
22-03-2020 8 (13:40) 0.1 (05:30) 4.1 7.22 (16:10) 5.28 (16:10) 5.1 0.3 0 4.7 0.1
21-03-2020 10.1 (16:50) 3 (00:00) 6.6 11.67 (07:50) 7.5 (07:50) 1 0 0.2 0 0.8
20-03-2020 14.2 (16:10) 3.2 (00:00) 8.7 10.83 (12:50) 5.83 (17:20) 0 0 0 0 0
19-03-2020 15.6 (15:30) 0.4 (00:00) 8 6.39 (22:10) 4.72 (22:10) 0 0 0 0 0
18-03-2020 14.1 (16:00) 3.2 (00:00) 8.7 10.56 (12:40) 6.39 (12:50) 0 0 0 0 0
17-03-2020 13.3 (16:00) -0.7 (-00:0) 6.3 10.56 (17:50) 6.67 (18:30) 0 0 0 0 0
16-03-2020 9.9 (00:30) -2 (-00:0) 3.9 11.67 (05:30) 7.22 (15:50) 12.2 11.2 0.3 0.7 0
15-03-2020 17.3 (15:20) 6.1 (00:00) 11.7 9.72 (17:30) 6.67 (17:20) 0 0 0 0 0
14-03-2020 18.9 (15:40) 5.2 (00:00) 12 5.83 (16:00) 3.61 (17:30) 0 0 0 0 0
13-03-2020 21.8 (14:50) 6.3 (07:30) 14 7.78 (16:40) 5.56 (16:30) 0 0 0 0 0
12-03-2020 23.7 (12:10) 7.2 (00:00) 15.5 8.06 (13:20) 5.56 (13:20) 0 0 0 0 0
11-03-2020 25.8 (15:10) 5 (00:00) 15.4 3.89 (15:20) 2.22 (08:30) 0 0 0 0 0
10-03-2020 20.3 (16:20) 0.6 (00:00) 10.4 5.28 (11:30) 3.06 (13:00) 0 0 0 0 0
09-03-2020 15.9 (15:20) 1.7 (00:00) 8.8 9.17 (16:50) 5.28 (17:40) 0 0 0 0 0
08-03-2020 17 (16:20) -1.3 (-00:0) 7.9 8.89 (16:30) 5.83 (15:50) 0 0 0 0 0

Gráficas

Temp. máximas Temp. mínimas Temp. medias Precipitaciones Rachas de viento máximas Velocidades máximas media en intervalos de 10 minutos

Datos horarios

Fecha y hora oficial Temperatura (ºC) Velocidad del viento (km/h) Dirección del viento Racha (km/h) Dirección de racha Precipitación (mm) Presión (hPa) Tendencia (hPa) Humedad (%)
2020-04-06 23:00:00 11.3 4 Oeste 14 Sur 0 930.3 1.5 72
2020-04-06 22:00:00 10.2 8 Sur 10 Sur 0 930.2 1.6 70
2020-04-06 21:00:00 11.6 9 Sudoeste 11 Sudoeste 0 928.9 0.1 64
2020-04-06 20:00:00 12.9 9 Sudoeste 14 Sudoeste 0 928.8 -0.1 58
2020-04-06 19:00:00 14.8 8 Oeste 28 Sudoeste 0 928.6 -0.4 53
2020-04-06 18:00:00 15.3 12 Oeste 19 Oeste 0 928.8 -0.4 54
2020-04-06 17:00:00 15.1 10 Oeste 19 Sudoeste 0 928.9 -0.3 57
2020-04-06 16:00:00 13.8 8 Oeste 18 Oeste 0 929 -0.5 59
2020-04-06 15:00:00 13.6 2 Noroeste 9 Oeste 0 929.2 0.5 63
2020-04-06 14:00:00 13 2 Nordeste 19 Oeste 0 929.2 0.6 67
2020-04-06 13:00:00 11.9 13 Sudoeste 27 Sudoeste 0 929.5 1.4 61
2020-04-06 12:00:00 12.6 17 Sur 28 Sudeste 0 928.7 1 57
2020-04-06 11:00:00 11.8 5 Oeste 15 Sudoeste 0 928.6 1.6 65
2020-04-06 10:00:00 12.5 0 Calma 8 Noroeste 0 928.1 1.6 67
2020-04-06 09:00:00 9.7 5 Sudoeste 8 Sudoeste 0 927.7 1.6 74
2020-04-06 08:00:00 9.7 3 Sur 9 Sudeste 0 927 1 74
2020-04-06 07:00:00 9.3 3 Nordeste 10 Nordeste 0 926.5 0.1 76
2020-04-06 06:00:00 9.5 3 Nordeste 10 Noroeste 0 926.1 -0.5 77
2020-04-06 05:00:00 10.2 3 Sudoeste 14 Oeste 0 926 -0.9 71
2020-04-06 04:00:00 8.4 5 Norte 20 Sur 0 926.4 0.3 74
2020-04-06 03:00:00 9.9 4 Noroeste 8 Noroeste 0 926.6 0.4 72
2020-04-06 02:00:00 9.6 0 Calma 14 Sudoeste 0 926.9 0.8 72
2020-04-06 01:00:00 8.7 16 Sudoeste 23 Sudoeste 0 926.1 0.1 72
2020-04-06 00:00:00 9.4 17 Sudoeste 22 Sudoeste 0 926.2 1.2 66
2020-04-05 23:00:00 9.6 9 Sudoeste 12 Sudoeste 0 926.1 1.6 64
2020-04-05 22:00:00 10.8 6 Sudoeste 14 Sudoeste 0 926 1.9 61
2020-04-05 21:00:00 11.7 5 Sudoeste 14 Sudoeste 0 925 1.3 60
2020-04-05 20:00:00 12.6 10 Sudoeste 28 Sudoeste 0 924.5 0.5 53
2020-04-05 19:00:00 13.6 20 Sudoeste 32 Sudoeste 0 924.1 -0.1 45
2020-04-05 18:00:00 15.2 20 Sudoeste 31 Sudoeste 0 923.7 -0.5 42
2020-04-05 17:00:00 16.1 17 Sudoeste 29 Sudoeste 0 924 -1.2 41
2020-04-05 16:00:00 15.8 19 Sur 31 Sudoeste 0 924.2 -1.4 39
2020-04-05 15:00:00 16 16 Sur 27 Sur 0 924.2 -1.4 38
2020-04-05 14:00:00 16.3 10 Sur 19 Sur 0 925.2 -0.5 38
2020-04-05 13:00:00 15.5 8 Sudoeste 18 Sudoeste 0 925.6 0.5 39
2020-04-05 12:00:00 14.6 8 Oeste 18 Sur 0 925.6 0.5 43
2020-04-05 11:00:00 11.6 14 Sudeste 24 Sudeste 0 925.7 1.2 53
2020-04-05 10:00:00 9.6 12 Sudeste 20 Sudeste 0 925.1 1 59
2020-04-05 09:00:00 7.5 12 Este 17 Este 0 925.1 0.5 66
2020-04-05 08:00:00 5.6 7 Nordeste 17 Este 0 924.5 0.5 73
2020-04-05 07:00:00 6.5 6 Este 11 Este 0 924.1 0.1 70
2020-04-05 06:00:00 6.1 6 Nordeste 17 Este 0 924.6 0.5 72
2020-04-05 05:00:00 5.7 10 Este 15 Este 0 924 -0.6 71
2020-04-05 04:00:00 6.1 12 Este 17 Sudeste 0 924 -0.3 68
2020-04-05 03:00:00 6.9 12 Sudeste 15 Sudeste 0 924.1 -0.1 65
2020-04-05 02:00:00 7.3 12 Sudeste 18 Sur 0 924.6 0.8 62
2020-04-05 01:00:00 8.6 10 Sur 19 Sur 0 924.3 1.2 56
2020-04-05 00:00:00 9.4 12 Sur 24 Sur 0 924.2 1.7 52
2020-04-04 23:00:00 9.6 18 Sur 26 Sur 0 923.8 1.4 51
2020-04-04 22:00:00 9.8 17 Sur 24 Sur 0 923.1 1.1 50
2020-04-04 21:00:00 10.7 19 Sudeste 32 Sur 0 922.5 0.7 44
2020-04-04 20:00:00 11.8 17 Sur 22 Sudeste 0 922.4 0.4 40
2020-04-04 19:00:00 12.7 17 Sudeste 26 Sur 0 922 0.1 37
2020-04-04 18:00:00 13.1 15 Sur 34 Sur 0 921.8 -0.5 35
2020-04-04 17:00:00 14.1 14 Sur 33 Sudeste 0 922 -0.5 33
2020-04-04 16:00:00 15.5 15 Sur 28 Sur 0 921.9 -0.5 33
2020-04-04 15:00:00 14.4 15 Sur 27 Sudeste 0 922.3 -0.4 34
2020-04-04 14:00:00 14.2 18 Sudeste 28 Sudeste 0 922.5 -0.1 34
2020-04-04 13:00:00 12.7 13 Sudeste 25 Sur 0 922.4 0.2 39
2020-04-04 12:00:00 11.3 14 Sudeste 23 Sudeste 0 922.7 0.3 42
2020-04-04 11:00:00 10.3 13 Sudeste 19 Este 0 922.6 0.5 48
2020-04-04 10:00:00 8.1 10 Este 18 Sudeste 0 922.2 0.2 59
2020-04-04 09:00:00 5.9 10 Este 18 Este 0 922.4 0.1 68
2020-04-04 08:00:00 3 11 Este 15 Este 0 922.1 -0.4 75
2020-04-04 07:00:00 3.7 7 Este 16 Sudeste 0 922 -1.1 73
2020-04-04 06:00:00 4.6 8 Este 18 Sudeste 0 922.3 -0.9 72
2020-04-04 05:00:00 4.4 9 Este 16 Este 0 922.5 -1 72
2020-04-04 04:00:00 4.1 7 Este 10 Este 0 923.1 -0.4 72
2020-04-04 03:00:00 5.5 7 Este 11 Nordeste 0 923.2 -0.2 66
2020-04-04 02:00:00 6.7 7 Este 14 Sudeste 0 923.5 -0.1 62
2020-04-04 01:00:00 7.6 3 Sudeste 5 Este 0 923.5 0.6 58
2020-04-04 00:00:00 7.3 0 Calma 5 Este 0 923.4 1 60
2020-04-03 23:00:00 8.4 0 Calma 5 Sudoeste 0 923.6 1.3 56
2020-04-03 22:00:00 7.9 0 Calma 6 Norte 0 922.9 0.4 58
2020-04-03 21:00:00 11.2 4 Norte 10 Norte 0 922.4 -0.2 40
2020-04-03 20:00:00 12.4 6 Nordeste 15 Nordeste 0 922.3 -0.2 36
2020-04-03 19:00:00 13.6 3 Este 13 Este 0 922.5 -0.5 34
2020-04-03 18:00:00 13.2 7 Nordeste 24 Este 0 922.6 -0.7 34
2020-04-03 17:00:00 14.7 4 Norte 16 Norte 0 922.5 -1.6 34
2020-04-03 16:00:00 14 5 Nordeste 17 Sudeste 0 923 -1.7 36
2020-04-03 15:00:00 12.1 6 Nordeste 14 Este 0 923.3 -1.1 37
2020-04-03 14:00:00 11.6 5 Este 15 Este 0 924.1 -0.2 45
2020-04-03 13:00:00 10.4 6 Este 17 Sudeste 0 924.7 0.8 50
2020-04-03 12:00:00 8.9 10 Este 16 Este 0 924.4 0.7 63
2020-04-03 11:00:00 7.3 3 Nordeste 8 Este 0 924.3 0.9 79
2020-04-03 10:00:00 3.6 5 Nordeste 10 Este 0 923.9 1 85
2020-04-03 09:00:00 1.7 4 Nordeste 10 Este 0 923.7 1.3 84
2020-04-03 08:00:00 0.5 3 Nordeste 8 Este 0 923.4 1.1 84
2020-04-03 07:00:00 0.4 0 Calma 12 Nordeste 0 922.9 0.6 84
2020-04-03 06:00:00 0.3 0 Calma 0 Calma 0 922.4 0.2 84
2020-04-03 05:00:00 1.8 0 Calma 7 Nordeste 0 922.3 0 84
2020-04-03 04:00:00 1.7 5 Nordeste 10 Nordeste 0 922.3 0.3 83
2020-04-03 03:00:00 3.8 0 Calma 6 Oeste 0 922.2 0 80
2020-04-03 02:00:00 3.7 4 Sudoeste 10 Oeste 0 922.3 0.3 79
2020-04-03 01:00:00 4.7 4 Sudoeste 6 Sudoeste 0 922 0.8 77
2020-04-03 00:00:00 5.1 3 Sudoeste 14 Oeste 0 922.2 2.2 78
2020-04-02 23:00:00 4.7 10 Oeste 14 Oeste 0 922 2.4 78
2020-04-02 22:00:00 5.3 8 Oeste 17 Oeste 0 921.2 2.2 75
2020-04-02 21:00:00 5.6 11 Oeste 19 Oeste 0 920 1.5 71
2020-04-02 20:00:00 7.4 6 Oeste 17 Oeste 0 919.6 0.7 65
2020-04-02 19:00:00 7.2 12 Oeste 19 Oeste 0 919 0.5 64
2020-04-02 18:00:00 7.1 4 Noroeste 26 Norte 0.5 918.5 -0.3 71
2020-04-02 17:00:00 4.9 18 Norte 35 Nordeste 0.9 918.9 -0.1 68
2020-04-02 16:00:00 6.5 11 Norte 23 Norte 0.5 918.5 -0.6 65
2020-04-02 15:00:00 7.2 11 Oeste 17 Oeste 0 918.8 -0.5 69
2020-04-02 14:00:00 5.6 8 Oeste 20 Sur 0.8 919 0.2 75
2020-04-02 13:00:00 4.3 14 Sudoeste 18 Sur 0.2 919.1 0.3 78
2020-04-02 12:00:00 6.3 3 Norte 11 Nordeste 0 919.3 1 66
2020-04-02 11:00:00 5.2 6 Noroeste 10 Noroeste 0 918.8 0.7 72
2020-04-02 10:00:00 4.3 2 Sudoeste 5 Sur 0.3 918.8 0.7 78
2020-04-02 09:00:00 3.4 0 Calma 5 Este 0.2 918.3 0.4 81
2020-04-02 08:00:00 3.7 5 Sudeste 12 Este 0.2 918.1 0 80
2020-04-02 07:00:00 3.2 7 Este 14 Sudeste 0 918.1 -0.8 78
2020-04-02 06:00:00 2.9 4 Sudeste 13 Sudeste 0 917.9 -1.6 78
2020-04-02 05:00:00 2.3 12 Sudeste 15 Sudeste 0 918.1 -2 79
2020-04-02 04:00:00 2.4 9 Sudeste 12 Sudeste 0 918.9 -1.4 75
2020-04-02 03:00:00 3.4 0 Calma 6 Sudeste 0 919.5 -0.9 72
2020-04-02 02:00:00 4.1 3 Sudeste 6 Sudoeste 0 920.1 -0.3 69
2020-04-02 01:00:00 4.6 3 Oeste 17 Sur 0 920.3 0.4 65
2020-04-02 00:00:00 4 10 Sur 16 Sudoeste 0 920.4 1.5 64
2020-04-01 23:00:00 5.4 7 Oeste 15 Oeste 0 920.4 2 59
2020-04-01 22:00:00 5.5 12 Oeste 22 Sudoeste 0 919.9 1.8 57
2020-04-01 21:00:00 5.3 12 Sudoeste 27 Sudoeste 0 918.9 0.6 52
2020-04-01 20:00:00 7.4 21 Sudoeste 32 Sudoeste 0 918.4 -0.1 45
2020-04-01 19:00:00 9.4 22 Sudoeste 31 Sudoeste 0 918.1 -0.6 41
2020-04-01 18:00:00 10 18 Sudoeste 30 Sudoeste 0 918.3 -1.1 42
2020-04-01 17:00:00 9.1 20 Sudoeste 28 Sudoeste 0 918.5 -0.8 43
2020-04-01 16:00:00 10.2 17 Oeste 32 Oeste 0 918.7 -1.2 44
2020-04-01 15:00:00 10.4 21 Oeste 33 Sudoeste 0 919.4 -0.5 49
2020-04-01 14:00:00 7.7 24 Sudoeste 33 Sudoeste 0 919.3 -0.6 50
2020-04-01 13:00:00 8.7 16 Oeste 36 Sudoeste 0 919.9 0.1 53
2020-04-01 12:00:00 7.1 18 Sudoeste 25 Sudoeste 0 919.9 0.2 52
2020-04-01 11:00:00 6.6 15 Sudoeste 22 Sudoeste 0 919.9 1.5 62
2020-04-01 10:00:00 5.4 5 Sudoeste 14 Sur 0 919.8 1.8 69
2020-04-01 09:00:00 4.5 3 Oeste 13 Sudoeste 0 919.7 1.7 70
2020-04-01 08:00:00 2.9 8 Sudoeste 37 Sudoeste 0 918.4 0.4 73
2020-04-01 07:00:00 3.8 17 Sur 28 Sudoeste 0 918 -0.1 72
2020-04-01 06:00:00 4.4 15 Sudoeste 24 Sudoeste 0 918 -0.3 72
2020-04-01 05:00:00 4.7 9 Sudoeste 18 Sudoeste 0 918 -0.4 78
2020-04-01 04:00:00 4.9 10 Sudoeste 14 Sudoeste 0 918.1 0 75
2020-04-01 03:00:00 5.3 8 Sudoeste 17 Sur 0 918.3 0.3 79
2020-04-01 02:00:00 5.7 6 Sur 19 Sur 0 918.4 0.7 77
2020-04-01 01:00:00 5.5 12 Sur 22 Sur 0 918.1 1.3 74
2020-04-01 00:00:00 5.8 11 Sudoeste 21 Sudoeste 0.1 918 1.7 75
2020-03-31 23:00:00 5.3 14 Sur 19 Sur 0.1 917.7 2.2 79
2020-03-31 22:00:00 5 15 Sur 39 Sudoeste 5.2 916.8 2.4 77
2020-03-31 21:00:00 5.7 9 Sudeste 22 Sudeste 2.1 916.3 1.5 81
2020-03-31 20:00:00 6.2 17 Sudeste 36 Sur 2.1 915.5 0.9 78
2020-03-31 19:00:00 7.5 8 Este 14 Este 0 914.4 0.7 73
2020-03-31 18:00:00 7.3 5 Este 13 Sur 0.7 914.8 0.6 71
2020-03-31 17:00:00 6.1 8 Sur 31 Sudoeste 7.1 914.6 0.2 78
2020-03-31 16:00:00 8.8 15 Sudeste 29 Sudeste 0 913.7 -0.5 60
2020-03-31 15:00:00 10.1 18 Sudeste 31 Sur 0 914.2 0.3 60
2020-03-31 14:00:00 9.2 19 Sur 33 Sur 0 914.4 1 62
2020-03-31 13:00:00 8.2 22 Sur 35 Sudeste 0 914.2 1.1 66
2020-03-31 12:00:00 6.5 24 Sur 35 Sur 0 913.9 1.3 70
2020-03-31 11:00:00 6.4 18 Sur 26 Sur 0 913.4 1.2 72
2020-03-31 10:00:00 5.5 21 Sur 35 Sur 0.3 913.1 1 71
2020-03-31 09:00:00 4.4 10 Este 22 Este 0.1 912.6 -0.1 82
2020-03-31 08:00:00 4 17 Sudeste 23 Sudeste 0 912.2 -0.9 81
2020-03-31 07:00:00 4.1 9 Este 22 Sudeste 0.2 912.1 -1 81
2020-03-31 06:00:00 3.7 16 Sur 26 Sur 1 912.7 -1.2 76
2020-03-31 05:00:00 4.2 12 Sur 22 Sur 0.7 913.1 -2.1 76
2020-03-31 04:00:00 4.3 14 Sudeste 29 Sur 0.6 913.1 -2.7 78
2020-03-31 03:00:00 3.7 8 Sudeste 17 Sudeste 0.6 913.9 -2.4 84
2020-03-31 02:00:00 2.6 5 Este 9 Nordeste 0.1 915.2 -1.3 84
2020-03-31 01:00:00 2.3 4 Nordeste 11 Nordeste 0.2 915.8 -1.3 84
2020-03-31 00:00:00 2.5 6 Norte 15 Nordeste 0 916.3 0.1 84
2020-03-30 23:00:00 2.5 10 Norte 16 Norte 2.4 916.5 0.4 84
2020-03-30 22:00:00 3.3 8 Norte 26 Norte 3.8 917.1 1.1 84
2020-03-30 21:00:00 3.7 17 Norte 27 Norte 0.8 916.2 -0.1 84
2020-03-30 20:00:00 6.1 8 Norte 15 Norte 2.5 916.1 -1.1 83
2020-03-30 19:00:00 6.7 6 Norte 12 Norte 0.1 916 -1.9 76
2020-03-30 18:00:00 7.5 4 Norte 9 Norte 0.2 916.3 -2.2 72
2020-03-30 17:00:00 7.4 6 Norte 16 Norte 0.1 917.2 -2.1 74
2020-03-30 16:00:00 7.5 10 Norte 18 Nordeste 0.1 917.9 -1.8 70
2020-03-30 15:00:00 7.7 0 Calma 15 Este 5.7 918.5 -1.7 77
2020-03-30 14:00:00 8.2 8 Este 18 Sudeste 0.3 919.3 -0.9 72
2020-03-30 13:00:00 9.3 4 Norte 19 Norte 0 919.7 -0.4 60
2020-03-30 12:00:00 10.4 2 Nordeste 15 Nordeste 0 920.2 -0.2 53
2020-03-30 11:00:00 9.4 0 Calma 8 Este 0 920.2 0.2 60
2020-03-30 10:00:00 8 0 Calma 8 Norte 0 920.1 0.1 65
2020-03-30 09:00:00 6.4 0 Calma 3 Noroeste 0 920.4 0.2 67
2020-03-30 08:00:00 6.8 0 Calma 4 Oeste 0 920 -1.2 63
2020-03-30 07:00:00 6.3 2 Sur 6 Este 0 920 -1.1 64
2020-03-30 06:00:00 6.7 2 Nordeste 5 Nordeste 0 920.2 -1.9 65
2020-03-30 05:00:00 6.3 3 Sudoeste 6 Noroeste 0 921.2 -1.2 63
2020-03-30 04:00:00 8.2 0 Calma 6 Oeste 0 921.1 -1.7 59
2020-03-30 03:00:00 8.8 4 Noroeste 8 Oeste 0 922.1 -0.9 56
2020-03-30 02:00:00 8.2 4 Noroeste 8 Noroeste 0 922.4 -1.1 58
2020-03-30 01:00:00 8.6 8 Oeste 13 Sudoeste 0 922.8 -0.1 58
2020-03-30 00:00:00 7.4 7 Sudoeste 10 Oeste 0 923 0.2 58
2020-03-29 23:00:00 8.3 8 Sudoeste 12 Oeste 0 923.5 0.6 56
2020-03-29 22:00:00 8.2 6 Sudoeste 11 Sudoeste 0 922.9 0.2 55
2020-03-29 21:00:00 9.2 6 Sudoeste 17 Sudoeste 0 922.8 -0.2 46
2020-03-29 20:00:00 11.1 17 Sudoeste 23 Sudoeste 0 922.9 -0.4 39
2020-03-29 19:00:00 13.8 14 Oeste 27 Sudoeste 0 922.7 -1 34
2020-03-29 18:00:00 14.4 8 Sudoeste 19 Sudoeste 0 923 -1.3 35
2020-03-29 17:00:00 13.2 13 Sudoeste 22 Sudoeste 0 923.3 -1.7 37
2020-03-29 16:00:00 14.4 4 Noroeste 19 Oeste 0 923.7 -1.7 32
2020-03-29 15:00:00 14.6 3 Oeste 18 Sudoeste 0 924.3 -1.4 32
2020-03-29 14:00:00 12.3 0 Calma 16 Noroeste 0 925 -1.1 36
2020-03-29 13:00:00 11.6 0 Calma 12 Norte 0 925.4 -0.4 37
2020-03-29 12:00:00 11.5 4 Este 12 Nordeste 0 925.7 -0.2 41
2020-03-29 11:00:00 9 7 Este 13 Sudeste 0 926.1 0.6 49
2020-03-29 10:00:00 4.9 4 Nordeste 7 Nordeste 0 925.8 0.5 63
2020-03-29 09:00:00 0.7 6 Nordeste 10 Nordeste 0 925.9 0.5 69
2020-03-29 08:00:00 0 2 Nordeste 8 Nordeste 0 925.5 -0.6 68
2020-03-29 07:00:00 0.9 5 Nordeste 6 Nordeste 0 925.3 -0.6 65
2020-03-29 06:00:00 1.2 0 Calma 7 Sur 0 925.4 -0.3 65
2020-03-29 05:00:00 -0.4 5 Sur 10 Este 0 926.1 -0.3 67
2020-03-29 03:00:00 2.2 2 Sudoeste 4 Sudoeste 0 925.7 -0.1 55
2020-03-29 01:00:00 2.7 3 Sudoeste 5 Sudoeste 0 926.4 0.5 54
2020-03-29 00:00:00 5.1 3 Nordeste 4 Nordeste 0 926 0.2 44
2020-03-28 23:00:00 5.5 0 Calma 5 Sudeste 0 925.8 1.4 44
2020-03-28 22:00:00 4.7 3 Sur 12 Nordeste 0 925.9 1.8 46
2020-03-28 21:00:00 6.8 6 Nordeste 15 Nordeste 0 925.8 2.3 40
2020-03-28 20:00:00 8.5 9 Nordeste 21 Nordeste 0 924.4 1.3 36
2020-03-28 19:00:00 10.4 13 Nordeste 27 Norte 0 924.1 0.9 33
2020-03-28 18:00:00 12 6 Noroeste 15 Noroeste 0 923.5 0.3 34
2020-03-28 17:00:00 11.3 6 Nordeste 17 Norte 0 923.1 -0.8 36
2020-03-28 16:00:00 11.9 6 Nordeste 17 Norte 0 923.2 -0.7 35
2020-03-28 15:00:00 10.7 8 Nordeste 17 Nordeste 0 923.2 -0.8 37
2020-03-28 14:00:00 10.1 7 Este 17 Este 0 923.9 -0.2 39
2020-03-28 13:00:00 9.1 6 Norte 17 Nordeste 0 923.9 0.2 42
2020-03-28 12:00:00 8.8 5 Nordeste 22 Norte 0 924 0.6 48
2020-03-28 11:00:00 8.2 3 Nordeste 14 Sudoeste 0 924.1 0.9 49
2020-03-28 10:00:00 4.9 3 Nordeste 9 Nordeste 0 923.7 1.3 66
2020-03-28 09:00:00 0.3 3 Nordeste 5 Nordeste 0 923.4 1.1 82
2020-03-28 08:00:00 -0.9 0 Calma 7 Sur 0 923.2 1.3 86
2020-03-28 07:00:00 -0.9 0 Calma 4 Sudoeste 0 922.4 0.9 84
2020-03-28 06:00:00 -0.1 2 Norte 7 Norte 0 922.3 0.8 83
2020-03-28 05:00:00 -0.2 3 Noroeste 6 Sudoeste 0 921.9 0.9 83
2020-03-28 04:00:00 -1.2 8 Sudoeste 10 Sudoeste 0 921.5 0 84
2020-03-28 03:00:00 -0.3 4 Norte 10 Norte 0 921.5 0.3 80
2020-03-28 02:00:00 0 2 Noroeste 9 Sudoeste 0 921 0.1 80
2020-03-28 01:00:00 0.4 3 Noroeste 12 Nordeste 0 921.5 1.3 78
2020-03-28 00:00:00 0.3 6 Norte 19 Norte 0 921.2 1.5 76
2020-03-27 23:00:00 0.5 12 Norte 21 Norte 0 920.9 2 75
2020-03-27 22:00:00 1.6 6 Noroeste 19 Norte 0 920.2 2.1 75
2020-03-27 21:00:00 2.4 14 Norte 23 Norte 0 919.7 1.7 73
2020-03-27 20:00:00 3.2 13 Noroeste 21 Norte 0 918.9 1.6 71
2020-03-27 19:00:00 4.3 10 Norte 19 Norte 0 918.1 1.1 69
2020-03-27 18:00:00 5.1 11 Norte 19 Norte 0 918 1.1 65
2020-03-27 17:00:00 5.7 11 Noroeste 20 Norte 0 917.3 0.3 61
2020-03-27 16:00:00 5.6 10 Noroeste 28 Noroeste 0 917 0.6 60
2020-03-27 15:00:00 6.4 14 Norte 29 Noroeste 0 916.9 0.6 60
2020-03-27 14:00:00 7.9 14 Noroeste 29 Noroeste 0 917 1 55
2020-03-27 13:00:00 8.5 10 Noroeste 39 Sudoeste 0 916.4 0.8 52
2020-03-27 12:00:00 8.5 27 Sudoeste 39 Sudoeste 0 916.3 1 46
2020-03-27 11:00:00 8.4 23 Sudoeste 38 Sudoeste 0 916 0.5 51
2020-03-27 10:00:00 8.1 25 Sudoeste 47 Sudoeste 0 915.6 0.2 56
2020-03-27 09:00:00 7 9 Noroeste 27 Oeste 0 915.3 0.5 67
2020-03-27 08:00:00 3.6 5 Oeste 9 Noroeste 0 915.5 0.8 72
2020-03-27 07:00:00 2.3 4 Nordeste 5 Nordeste 0 915.4 0.4 66
2020-03-27 06:00:00 3.4 0 Calma 5 Sur 0 914.8 -0.6 63
2020-03-27 05:00:00 3.3 3 Sudeste 10 Sudeste 0 914.7 -1.3 62
2020-03-27 04:00:00 2.5 3 Norte 11 Noroeste 0 915 -1.3 61
2020-03-27 03:00:00 3 3 Oeste 7 Sudoeste 0 915.4 -1.1 59
2020-03-27 02:00:00 3.4 4 Sudoeste 7 Oeste 0 916 -0.6 57
2020-03-27 01:00:00 4.4 4 Sur 7 Noroeste 0 916.3 -0.7 54
2020-03-27 00:00:00 7.5 5 Noroeste 11 Oeste 0 916.5 0.1 47
2020-03-26 23:00:00 7.6 3 Sudoeste 9 Oeste 0 916.6 0.9 46
2020-03-26 22:00:00 10.1 6 Norte 15 Oeste 0 917 1.3 42
2020-03-26 21:00:00 9.1 12 Oeste 19 Oeste 0 916.4 1.2 45
2020-03-26 20:00:00 8.8 13 Oeste 26 Oeste 0 915.7 0.3 45
2020-03-26 19:00:00 12.3 16 Oeste 35 Oeste 0 915.7 0.4 37
2020-03-26 18:00:00 13.4 18 Oeste 37 Oeste 0 915.2 -0.1 34
2020-03-26 17:00:00 14.5 17 Oeste 40 Oeste 0 915.4 -0.6 29
2020-03-26 16:00:00 14.1 18 Oeste 33 Oeste 0 915.3 -1.3 34
2020-03-26 15:00:00 14.2 16 Oeste 35 Sudoeste 0 915.3 -2.1 36
2020-03-26 14:00:00 13.2 19 Oeste 33 Sudoeste 0 916 -1.9 39
2020-03-26 13:00:00 12.7 13 Oeste 27 Oeste 0 916.6 -1.6 42
2020-03-26 12:00:00 11.4 8 Noroeste 19 Oeste 0 917.4 -0.7 42
2020-03-26 11:00:00 10.1 10 Oeste 20 Oeste 0 917.9 -0.6 58
2020-03-26 10:00:00 8 12 Oeste 21 Oeste 0 918.2 0.3 74
2020-03-26 09:00:00 6.1 5 Noroeste 13 Oeste 0 918.1 0.1 77
2020-03-26 08:00:00 4.5 6 Oeste 12 Oeste 0 918.5 0.6 76
2020-03-26 07:00:00 4.5 2 Norte 13 Oeste 0 917.9 -0.6 74
2020-03-26 06:00:00 5.4 8 Noroeste 19 Oeste 0 918 -1.4 73
2020-03-26 05:00:00 5.6 7 Oeste 13 Oeste 0 917.9 -2 71
2020-03-26 04:00:00 6 10 Oeste 16 Oeste 0 918.5 -1.6 68
2020-03-26 03:00:00 6.5 9 Oeste 21 Oeste 0 919.4 -1 68
2020-03-26 02:00:00 6.2 12 Oeste 21 Oeste 0 919.9 -1.5 68
2020-03-26 01:00:00 7.2 6 Oeste 22 Oeste 0 920.1 -0.9 64
2020-03-26 00:00:00 5.5 11 Sudoeste 14 Sudoeste 0 920.4 -0.8 63
2020-03-25 23:00:00 7.2 8 Oeste 13 Oeste 0 921.4 0.5 58
2020-03-25 22:00:00 7.7 7 Oeste 25 Oeste 0 921 0.3 54
2020-03-25 21:00:00 7.1 7 Sudoeste 9 Sudoeste 0 921.2 0.3 52
2020-03-25 20:00:00 8.4 3 Sudoeste 7 Noroeste 0 920.9 -0.2 42
2020-03-25 19:00:00 11.3 5 Noroeste 19 Oeste 0 920.7 -0.7 35
2020-03-25 18:00:00 12.5 6 Oeste 22 Oeste 0 920.9 -0.9 32
2020-03-25 17:00:00 12.3 13 Noroeste 27 Noroeste 0 921.1 -1.4 31
2020-03-25 16:00:00 11.9 11 Noroeste 23 Noroeste 0 921.4 -1.6 35
2020-03-25 15:00:00 11.8 8 Noroeste 20 Noroeste 0 921.8 -1.1 34
2020-03-25 14:00:00 11.6 6 Oeste 17 Norte 0 922.5 -0.5 38
2020-03-25 13:00:00 10.1 7 Norte 17 Norte 0 923 -0.1 39
2020-03-25 12:00:00 9.2 8 Norte 16 Norte 0 922.9 0.2 42
2020-03-25 11:00:00 8.3 3 Norte 11 Nordeste 0 923 0.5 48
2020-03-25 10:00:00 7.1 2 Nordeste 8 Este 0 923.1 0.7 55
2020-03-25 09:00:00 4.1 3 Sudoeste 7 Norte 0 922.7 0.3 64
2020-03-25 08:00:00 1.7 6 Norte 14 Norte 0 922.5 0.2 68
2020-03-25 07:00:00 1.9 4 Norte 7 Norte 0 922.4 -0.3 67
2020-03-25 06:00:00 2.8 4 Nordeste 9 Este 0 922.4 -0.7 65
2020-03-25 05:00:00 3.4 8 Este 15 Este 0 922.3 -0.5 65
2020-03-25 04:00:00 3.7 10 Este 15 Este 0 922.7 -0.4 64
2020-03-25 03:00:00 4.2 6 Este 21 Nordeste 0 923.1 0.3 63
2020-03-25 02:00:00 4.3 13 Este 25 Este 0 922.8 0.1 61
2020-03-25 01:00:00 4.4 12 Nordeste 28 Nordeste 0 923.1 0.8 61
2020-03-25 00:00:00 4.6 14 Nordeste 32 Nordeste 0 922.8 0.9 62
2020-03-24 23:00:00 5 20 Nordeste 33 Nordeste 0 922.7 1.7 62
2020-03-24 22:00:00 5.5 17 Nordeste 35 Nordeste 0 922.3 1.8 64
2020-03-24 21:00:00 5.9 19 Nordeste 36 Nordeste 0 921.9 2.1 62
2020-03-24 20:00:00 6.7 21 Nordeste 47 Nordeste 0 921 1.8 61
2020-03-24 19:00:00 7.7 26 Nordeste 42 Nordeste 0 920.5 1.5 56
2020-03-24 18:00:00 9 22 Nordeste 39 Nordeste 0 919.8 0.6 52
2020-03-24 17:00:00 10.5 21 Nordeste 49 Este 0 919.2 -0.2 48
2020-03-24 16:00:00 10.8 23 Este 42 Este 0 919 -0.6 44
2020-03-24 15:00:00 11.1 23 Este 40 Este 0 919.2 -0.6 44
2020-03-24 14:00:00 10.7 23 Este 39 Este 0 919.4 -0.2 48
2020-03-24 13:00:00 9.8 17 Este 39 Este 0 919.6 0 52
2020-03-24 12:00:00 9.4 27 Este 41 Este 0 919.8 0.2 52
2020-03-24 11:00:00 8.6 17 Nordeste 32 Este 0 919.6 0.3 55
2020-03-24 10:00:00 7.3 16 Este 32 Nordeste 0 919.6 0.3 60
2020-03-24 09:00:00 5.6 9 Nordeste 15 Nordeste 0 919.6 0.8 68
2020-03-24 08:00:00 4 5 Nordeste 12 Este 0 919.3 0 73
2020-03-24 07:00:00 3.9 5 Este 15 Nordeste 0 919.3 -0.4 74
2020-03-24 06:00:00 3.2 11 Nordeste 22 Nordeste 0 918.8 -1 79
2020-03-24 05:00:00 3.5 11 Nordeste 18 Nordeste 0 919.3 -0.7 78
2020-03-24 04:00:00 3.2 0 Calma 12 Nordeste 0 919.7 -0.6 77
2020-03-24 03:00:00 4.4 8 Nordeste 18 Nordeste 0 919.8 -1 73
2020-03-24 02:00:00 3.5 6 Nordeste 12 Nordeste 0 920 -1.1 78
2020-03-24 01:00:00 4.9 7 Nordeste 14 Nordeste 0 920.3 -0.5 76
2020-03-24 00:00:00 5.9 9 Nordeste 26 Nordeste 0 920.8 0.1 72
2020-03-23 23:00:00 6 5 Nordeste 16 Este 0.2 921.1 1.2 76
2020-03-23 22:00:00 5.8 9 Este 21 Sudeste 0.7 920.8 0.7 79
2020-03-23 21:00:00 6.3 16 Sudeste 24 Sudeste 0.3 920.7 1.3 75
2020-03-23 20:00:00 7.4 11 Este 21 Este 0.1 919.9 1.1 65
2020-03-23 19:00:00 8.2 10 Este 26 Este 0 920.1 1 59
2020-03-23 18:00:00 8.6 14 Este 25 Este 0 919.4 0.3 59
2020-03-23 17:00:00 7.7 6 Este 41 Sudeste 1.7 918.8 -0.8 67
2020-03-23 16:00:00 10.7 9 Este 23 Sudoeste 0 919.1 -1.1 46
2020-03-23 15:00:00 11.3 9 Este 17 Sudeste 0 919.1 -1.4 41
2020-03-23 14:00:00 10.8 13 Sudeste 21 Este 0 919.6 -1.5 42
2020-03-23 13:00:00 10.4 4 Sudeste 14 Sur 0 920.2 -1.3 44
2020-03-23 12:00:00 9.5 3 Este 15 Sur 0 920.5 -0.5 50
2020-03-23 11:00:00 7.6 5 Nordeste 13 Este 0 921.1 0.8 59
2020-03-23 10:00:00 6.6 6 Nordeste 10 Nordeste 0 921.5 1.1 66
2020-03-23 09:00:00 4.4 4 Este 8 Este 0 921 0.9 77
2020-03-23 08:00:00 3.4 4 Este 6 Este 0 920.3 0.9 79
2020-03-23 07:00:00 3.4 4 Este 11 Este 0 920.4 0.9 82
2020-03-23 06:00:00 3.2 5 Nordeste 13 Este 0 920.1 0.5 84
2020-03-23 05:00:00 3.2 4 Este 11 Nordeste 0 919.4 -0.3 83
2020-03-23 04:00:00 3.5 3 Sudeste 7 Sudeste 0 919.5 -0.3 83
2020-03-23 03:00:00 3.2 0 Calma 8 Este 0 919.6 -0.8 82
2020-03-23 02:00:00 2.8 6 Sudeste 8 Sudeste 0 919.7 -1 82
2020-03-23 01:00:00 2.1 5 Nordeste 9 Nordeste 0 919.8 -0.2 83
2020-03-23 00:00:00 2.1 6 Nordeste 11 Sudeste 0 920.4 0.8 82
2020-03-22 23:00:00 2.5 5 Este 9 Este 0 920.7 1.7 81
2020-03-22 22:00:00 3.3 5 Este 12 Este 0 920 1.8 82
2020-03-22 21:00:00 3.7 6 Nordeste 10 Nordeste 0 919.6 1.7 78
2020-03-22 20:00:00 4.1 3 Sur 10 Norte 0 919 1.4 75
2020-03-22 19:00:00 4.9 6 Oeste 19 Norte 0.1 918.2 0.5 70
2020-03-22 18:00:00 4.2 10 Norte 16 Norte 2.8 917.9 0.3 77
2020-03-22 17:00:00 4 6 Sudoeste 26 Sudoeste 1 917.6 -0.1 77
2020-03-22 16:00:00 3.9 15 Sudoeste 23 Sudoeste 0.9 917.7 -0.8 77
2020-03-22 15:00:00 6.4 3 Oeste 26 Norte 0 917.6 -0.9 61
2020-03-22 14:00:00 7.6 14 Norte 23 Noroeste 0 917.7 -0.8 53
2020-03-22 13:00:00 6.7 12 Norte 22 Norte 0 918.5 -0.4 60
2020-03-22 12:00:00 6.5 11 Norte 21 Nordeste 0 918.5 0.3 63
2020-03-22 11:00:00 6.2 9 Nordeste 15 Norte 0 918.5 0.4 74
2020-03-22 10:00:00 3.3 0 Calma 7 Sudoeste 0 918.9 1.2 82
2020-03-22 09:00:00 2.2 0 Calma 4 Sudoeste 0 918.2 0.5 84
2020-03-22 08:00:00 0.6 2 Sudoeste 4 Sudoeste 0 918.1 0.8 85
2020-03-22 07:00:00 0.6 3 Sudoeste 5 Sudoeste 0 917.7 0.3 85
2020-03-22 06:00:00 1.3 3 Norte 7 Sur 0 917.7 -0.2 85
2020-03-22 05:00:00 1.8 4 Nordeste 9 Nordeste 0 917.3 -1.3 85
2020-03-22 04:00:00 2.3 0 Calma 12 Sudeste 0 917.4 -1.4 84
2020-03-22 03:00:00 2.8 7 Sudeste 12 Este 0 917.9 -1.1 81
2020-03-22 02:00:00 3.4 3 Este 17 Sur 0.3 918.6 -0.8 80
2020-03-22 01:00:00 3 8 Oeste 16 Sur 0 918.8 -0.4 82
2020-03-22 00:00:00 3.5 11 Sudeste 15 Sudeste 0 919 0.2 80
2020-03-21 23:00:00 4.1 13 Sur 19 Sur 0.1 919.4 1.3 77
2020-03-21 22:00:00 4.2 11 Sur 28 Sur 0.4 919.2 1.5 79
2020-03-21 21:00:00 3.6 23 Sudoeste 33 Sur 0.3 918.8 1 78
2020-03-21 20:00:00 7.1 10 Sur 14 Sudeste 0 918.1 0.1 56
2020-03-21 19:00:00 8.3 8 Sudeste 14 Sudeste 0 917.7 -0.3 52
2020-03-21 18:00:00 9 7 Sur 13 Sur 0 917.8 -1 47
2020-03-21 17:00:00 8.5 7 Sudoeste 16 Sudoeste 0 918 -2 47
2020-03-21 16:00:00 9.8 3 Sudoeste 15 Sudoeste 0 918 -2.2 46
2020-03-21 15:00:00 8.1 5 Sudoeste 20 Sur 0 918.8 -1.9 53
2020-03-21 14:00:00 7.1 13 Sudoeste 24 Sudoeste 0 920 -0.6 59
2020-03-21 13:00:00 5.3 15 Sur 22 Sur 0 920.2 -0.5 65
2020-03-21 12:00:00 4.7 9 Sudoeste 25 Sudoeste 0 920.7 0.1 71
2020-03-21 11:00:00 5.1 16 Sudoeste 22 Sur 0 920.6 0.4 70
2020-03-21 10:00:00 5.2 2 Sur 15 Oeste 0.1 920.7 1 74
2020-03-21 09:00:00 3.6 8 Oeste 31 Sudoeste 0.1 920.6 1.3 76
2020-03-21 08:00:00 3.1 24 Sudoeste 42 Sudoeste 0 920.2 1.3 75
2020-03-21 07:00:00 4.8 23 Sudoeste 33 Sur 0 919.7 0.8 75
2020-03-21 06:00:00 6.3 8 Sudeste 12 Sudeste 0 919.3 -0.3 72
2020-03-21 05:00:00 6.5 11 Sudeste 14 Sudeste 0 918.9 -1.3 71
2020-03-21 04:00:00 7 8 Sudeste 14 Sudeste 0 918.9 -1.9 70
2020-03-21 03:00:00 7 4 Sudeste 15 Sudeste 0 919.6 -1.4 71
2020-03-21 02:00:00 6.8 12 Sudeste 22 Sudeste 0 920.2 -0.7 71
2020-03-21 01:00:00 6.5 14 Sudeste 22 Sudeste 0 920.8 0.3 70
2020-03-21 00:00:00 7.4 15 Sudeste 21 Sudeste 0 921 0.6 66
2020-03-20 23:00:00 8.2 15 Sudeste 19 Sudeste 0 920.9 0.7 59
2020-03-20 22:00:00 8.5 10 Sudeste 14 Sudeste 0 920.5 0.6 58
2020-03-20 21:00:00 8.8 12 Sudeste 15 Sudeste 0 920.4 -0.1 56
2020-03-20 20:00:00 9.7 9 Sudeste 11 Sudeste 0 920.2 -0.5 54
2020-03-20 19:00:00 11.8 5 Sudeste 18 Sudeste 0 919.9 -1 48
2020-03-20 18:00:00 12.5 15 Sudeste 27 Sudeste 0 920.5 -0.9 44
2020-03-20 17:00:00 13.8 13 Sur 24 Sudeste 0 920.7 -1.5 42
2020-03-20 16:00:00 13.5 16 Sur 27 Sudeste 0 920.9 -1.4 41
2020-03-20 15:00:00 13.1 16 Sudeste 26 Sudeste 0 921.4 -1.5 43
2020-03-20 14:00:00 12.6 17 Sudeste 26 Sudeste 0 922.2 -0.9 46
2020-03-20 13:00:00 13.3 10 Este 39 Sudeste 0 922.3 -0.9 44
2020-03-20 12:00:00 11.6 5 Este 14 Sudeste 0 922.9 0.2 49
2020-03-20 11:00:00 9.9 9 Sudeste 16 Sudeste 0 923.1 0.7 55
2020-03-20 10:00:00 7.3 10 Este 15 Este 0 923.2 0.7 64
2020-03-20 09:00:00 3.9 3 Sudeste 11 Este 0 922.7 0.5 76
2020-03-20 08:00:00 3.9 7 Este 13 Este 0 922.4 0.1 74
2020-03-20 07:00:00 4.2 10 Sudeste 21 Sudeste 0 922.5 -0.1 74
2020-03-20 06:00:00 4.2 14 Este 19 Este 0 922.2 -0.7 74
2020-03-20 05:00:00 4.1 14 Este 17 Este 0 922.3 -0.4 75
2020-03-20 04:00:00 4.9 14 Sudeste 18 Sudeste 0 922.6 -0.8 73
2020-03-20 03:00:00 5.3 9 Sudeste 19 Sudeste 0 922.9 -0.4 74
2020-03-20 02:00:00 5.4 13 Este 21 Sudeste 0 922.7 -0.8 73
2020-03-20 01:00:00 5.9 13 Este 21 Este 0 923.4 0 72
2020-03-20 00:00:00 6.3 14 Sudeste 22 Sudeste 0 923.3 -0.1 72
2020-03-19 23:00:00 7.2 15 Sudeste 23 Sudeste 0 923.5 0.1 68
2020-03-19 22:00:00 7.7 15 Sudeste 21 Este 0 923.4 0.6 67
2020-03-19 21:00:00 8.5 15 Sudeste 18 Sudeste 0 923.4 0.5 64
2020-03-19 20:00:00 10.1 11 Sudeste 14 Sur 0 923.4 0.4 56
2020-03-19 19:00:00 11.3 11 Sur 15 Sur 0 922.8 -0.5 50
2020-03-19 18:00:00 12.8 6 Sur 12 Sur 0 922.9 -1 46
2020-03-19 17:00:00 14 6 Sudeste 16 Sudeste 0 923 -2.1 43
2020-03-19 16:00:00 15.2 8 Sudeste 21 Este 0 923.3 -2.2 40
2020-03-19 15:00:00 14.7 9 Este 23 Sudeste 0 923.9 -2.5 39
2020-03-19 14:00:00 14.6 12 Sudeste 22 Sudeste 0 925.1 -2 40
2020-03-19 13:00:00 13.5 4 Este 15 Nordeste 0 925.5 -1.4 42
2020-03-19 12:00:00 11.9 5 Nordeste 11 Nordeste 0 926.4 -0.7 47
2020-03-19 11:00:00 9.2 4 Nordeste 10 Nordeste 0 927.1 0 56
2020-03-19 10:00:00 6.2 3 Norte 6 Norte 0 926.9 -0.4 69
2020-03-19 09:00:00 2.9 2 Sudoeste 4 Sur 0 927.1 -0.1 85
2020-03-19 08:00:00 0.9 2 Sudoeste 4 Sudoeste 0 927.1 0.1 84
2020-03-19 07:00:00 2 0 Calma 5 Norte 0 927.3 0.3 78
2020-03-19 06:00:00 2.9 2 Nordeste 4 Nordeste 0 927.2 0 80
2020-03-19 05:00:00 2.9 0 Calma 4 Norte 0 927 -0.5 79
2020-03-19 04:00:00 3.3 3 Sur 3 Sur 0 927 -0.8 80
2020-03-19 03:00:00 4.3 0 Calma 8 Nordeste 0 927.2 -1.4 73
2020-03-19 02:00:00 5.7 5 Nordeste 11 Nordeste 0 927.5 -1.4 69
2020-03-19 01:00:00 6.4 6 Este 13 Este 0 927.8 -0.7 68
2020-03-19 00:00:00 6.7 6 Nordeste 19 Este 0 928.6 0.3 66
2020-03-18 23:00:00 7.3 5 Nordeste 23 Este 0 928.9 0.5 65
2020-03-18 22:00:00 7.5 5 Este 15 Este 0 928.5 0.4 64
2020-03-18 21:00:00 8.6 8 Este 20 Nordeste 0 928.3 0.7 58
2020-03-18 20:00:00 9.5 10 Este 27 Nordeste 0 928.4 1 54
2020-03-18 19:00:00 11.1 12 Nordeste 28 Nordeste 0 928.1 0.7 49
2020-03-18 18:00:00 12.5 16 Nordeste 37 Nordeste 0 927.6 -0.4 44
2020-03-18 17:00:00 12.8 22 Nordeste 36 Nordeste 0 927.4 -0.9 44
2020-03-18 16:00:00 13.8 19 Nordeste 35 Nordeste 0 927.4 -1.6 42
2020-03-18 15:00:00 13.3 17 Nordeste 37 Este 0 928 -1.8 42
2020-03-18 14:00:00 13.2 23 Nordeste 36 Este 0 928.3 -1.9 40
2020-03-18 13:00:00 12.5 20 Nordeste 38 Nordeste 0 929 -0.8 43
2020-03-18 12:00:00 10.6 19 Nordeste 31 Nordeste 0 929.8 0 50
2020-03-18 11:00:00 9.7 15 Nordeste 32 Este 0 930.2 0.7 53
2020-03-18 10:00:00 8.2 19 Este 31 Nordeste 0 929.8 -0.1 55
2020-03-18 09:00:00 7.1 14 Nordeste 21 Nordeste 0 929.8 0.3 64
2020-03-18 08:00:00 4.8 0 Calma 8 Sudoeste 0 929.5 0.2 76
2020-03-18 07:00:00 5.3 3 Nordeste 17 Nordeste 0 929.9 0.6 71
2020-03-18 06:00:00 5.9 9 Nordeste 15 Nordeste 0 929.5 0.6 69
2020-03-18 05:00:00 6.2 9 Nordeste 19 Nordeste 0 929.3 0.1 69
2020-03-18 04:00:00 6.2 8 Nordeste 31 Nordeste 0 929.3 -0.3 70
2020-03-18 03:00:00 6.5 17 Nordeste 31 Nordeste 0 928.9 -1.3 70
2020-03-18 02:00:00 7.3 17 Nordeste 28 Nordeste 0 929.2 -0.7 66
2020-03-18 01:00:00 7.5 9 Nordeste 16 Nordeste 0 929.6 -0.6 74
2020-03-18 00:00:00 8.6 6 Nordeste 33 Este 0 930.2 0.4 74
2020-03-17 23:00:00 8.7 15 Este 27 Este 0 929.9 1 72
2020-03-17 22:00:00 8.7 11 Nordeste 22 Nordeste 0 930.2 1.8 74
2020-03-17 21:00:00 8.8 13 Nordeste 23 Este 0 929.8 1.7 71
2020-03-17 20:00:00 8.6 14 Este 36 Este 0 928.9 1.9 66
2020-03-17 19:00:00 10.2 19 Este 38 Este 0 928.4 0.7 56
2020-03-17 18:00:00 11.2 18 Este 38 Este 0 928.1 0.9 47
2020-03-17 17:00:00 12.3 12 Este 25 Este 0 927 -0.7 40
2020-03-17 16:00:00 12.7 10 Este 26 Nordeste 0 927.7 -0.8 37
2020-03-17 15:00:00 12.3 12 Este 30 Este 0 927.2 -0.7 36
2020-03-17 14:00:00 11.4 15 Sudeste 27 Sudeste 0 927.7 -0.1 37
2020-03-17 13:00:00 10.1 16 Este 36 Sudeste 0 928.5 1.4 37
2020-03-17 12:00:00 8.9 15 Este 29 Este 0 927.9 1.1 40
2020-03-17 11:00:00 8.3 13 Este 27 Sudeste 0 927.8 1.1 42
2020-03-17 10:00:00 7.2 10 Este 22 Este 0 927.1 1.4 53
2020-03-17 09:00:00 4.1 6 Este 14 Este 0 926.8 2.1 66
2020-03-17 08:00:00 -0.1 8 Nordeste 11 Nordeste 0 926.7 2.4 73
2020-03-17 07:00:00 -0.6 6 Nordeste 12 Este 0 925.7 1.3 74
2020-03-17 06:00:00 0 6 Este 9 Este 0 924.7 0.7 74
2020-03-17 05:00:00 0.8 4 Este 11 Este 0 924.3 0.3 74
2020-03-17 04:00:00 1.1 5 Nordeste 16 Este 0 924.4 0.2 75
2020-03-17 03:00:00 0.8 8 Este 16 Este 0 924 0 75
2020-03-17 02:00:00 0.2 6 Este 14 Este 0 924 0.5 76
2020-03-17 01:00:00 0.2 6 Nordeste 11 Nordeste 0 924.2 1.2 78
2020-03-17 00:00:00 0.4 5 Este 14 Este 0 924 2 78
2020-03-16 23:00:00 -0.1 8 Este 13 Este 0 923.5 2.2 79
2020-03-16 22:00:00 0.7 9 Sudeste 13 Este 0 923 2.6 78
2020-03-16 21:00:00 0.9 7 Este 22 Sudeste 0 922 1.7 75
2020-03-16 20:00:00 1 13 Sudeste 18 Sudeste 0 921.3 1.2 74
2020-03-16 19:00:00 1.6 13 Sudeste 22 Sudeste 0 920.4 0.1 71
2020-03-16 18:00:00 2.8 11 Sudeste 18 Sudeste 0 920.3 0.1 69
2020-03-16 17:00:00 1.5 14 Sudeste 21 Sur 0.3 920.1 0.3 75
2020-03-16 16:00:00 0 17 Sur 36 Sudoeste 0.4 920.3 0.3 77
2020-03-16 15:00:00 1.8 17 Sur 33 Sur 0 920.2 0.1 63
2020-03-16 14:00:00 2.5 12 Sudoeste 30 Sudoeste 0 919.8 -0.6 60
2020-03-16 13:00:00 2.5 14 Sudoeste 27 Sudoeste 0 920 -0.6 58
2020-03-16 12:00:00 2.6 19 Sudoeste 26 Sudoeste 0 920.1 -0.7 57
2020-03-16 11:00:00 2.4 10 Sudoeste 26 Sudoeste 0 920.4 0.9 61
2020-03-16 10:00:00 0.2 18 Sudoeste 30 Sudoeste 0 920.6 1.7 69
2020-03-16 09:00:00 0 12 Oeste 26 Sudoeste 0 920.8 1.8 74
2020-03-16 08:00:00 -0.8 17 Sudoeste 25 Sudoeste 0 919.5 0.8 80
2020-03-16 07:00:00 -0.5 8 Oeste 20 Sudoeste 0.3 918.9 0.6 82
2020-03-16 06:00:00 -1.8 16 Oeste 42 Oeste 0.9 919 0.4 83
2020-03-16 05:00:00 2 21 Oeste 40 Oeste 0 918.7 0 81
2020-03-16 04:00:00 5.1 14 Oeste 28 Oeste 0.3 918.3 -1.1 83
2020-03-16 03:00:00 6.3 14 Oeste 32 Sudoeste 5.8 918.6 -1.5 82
2020-03-16 02:00:00 8.5 10 Oeste 39 Sudoeste 4 918.7 -2.1 80
2020-03-16 01:00:00 9.4 24 Sudoeste 36 Sudoeste 0.2 919.4 -0.7 66
2020-03-16 00:00:00 9.1 4 Nordeste 12 Este 0 920.1 -1.1 58
2020-03-15 23:00:00 10.6 3 Sudeste 22 Noroeste 0 920.8 0.5 56
2020-03-15 22:00:00 12.1 9 Noroeste 23 Oeste 0 920.1 -0.3 58
2020-03-15 21:00:00 11.9 11 Oeste 26 Sudoeste 0 921.2 0.7 56
2020-03-15 20:00:00 11.2 13 Sudoeste 27 Sudoeste 0 920.3 -0.6 56
2020-03-15 19:00:00 13.2 2 Sudoeste 30 Sur 0 920.4 -0.5 44
2020-03-15 18:00:00 13.9 23 Sur 35 Sudoeste 0 920.5 -1.3 41
2020-03-15 17:00:00 16 21 Sudoeste 32 Sur 0 920.9 -1.4 38
2020-03-15 16:00:00 16.4 23 Sudoeste 31 Sudoeste 0 920.9 -2.3 38
2020-03-15 15:00:00 15.6 16 Sudoeste 27 Sudoeste 0 921.8 -2 41
2020-03-15 14:00:00 15.5 15 Oeste 26 Sur 0 922.3 -1.6 43
2020-03-15 13:00:00 15.5 14 Sudoeste 25 Sur 0 923.2 -1.1 48
2020-03-15 12:00:00 14.5 15 Sudeste 25 Sur 0 923.8 -0.5 54
2020-03-15 11:00:00 13.3 10 Sudeste 21 Sudeste 0 923.9 0 63
2020-03-15 10:00:00 12.8 8 Sur 16 Sur 0 924.3 0.3 61
2020-03-15 09:00:00 10.7 4 Sudeste 12 Sudeste 0 924.3 0.3 71
2020-03-15 08:00:00 8.8 12 Sudeste 30 Sudeste 0 923.9 0.1 77
2020-03-15 07:00:00 7.4 10 Sudeste 13 Sudeste 0 924 -0.1 77
2020-03-15 06:00:00 6.8 5 Nordeste 8 Nordeste 0 924 -0.9 75
2020-03-15 05:00:00 6.8 5 Nordeste 7 Nordeste 0 923.8 -1.4 73
2020-03-15 04:00:00 7.8 3 Norte 5 Nordeste 0 924.1 -1 68
2020-03-15 03:00:00 7.8 0 Calma 5 Nordeste 0 924.9 -0.6 68
2020-03-15 02:00:00 8.7 0 Calma 6 Sudeste 0 925.2 -0.4 63
2020-03-15 01:00:00 8.8 0 Calma 3 Nordeste 0 925.1 -0.5 62
2020-03-15 00:00:00 10.1 0 Calma 7 Sudeste 0 925.5 0.3 59
2020-03-14 23:00:00 11.5 3 Sudeste 6 Sudeste 0 925.6 0.3 55
2020-03-14 22:00:00 12.4 0 Calma 4 Sur 0 925.6 0.5 52
2020-03-14 21:00:00 11.9 3 Sudoeste 6 Oeste 0 925.2 0.4 51
2020-03-14 20:00:00 12.5 3 Oeste 9 Sudoeste 0 925.3 0.4 50
2020-03-14 19:00:00 14.4 4 Sur 14 Sudoeste 0 925.1 0.2 44
2020-03-14 18:00:00 16.8 10 Sudoeste 19 Sudoeste 0 924.8 -0.7 40
2020-03-14 17:00:00 18.2 6 Sudeste 14 Sudeste 0 924.9 -1.1 40
2020-03-14 16:00:00 16.1 11 Sur 21 Sur 0 924.9 -1.9 40
2020-03-14 15:00:00 16.4 6 Sudoeste 15 Sur 0 925.5 -1.8 44
2020-03-14 14:00:00 15.6 5 Nordeste 14 Sudoeste 0 926 -1.7 46
2020-03-14 13:00:00 17.1 3 Oeste 12 Norte 0 926.8 -0.8 49
2020-03-14 12:00:00 14.8 4 Noroeste 12 Norte 0 927.3 0.2 57
2020-03-14 11:00:00 12.5 5 Norte 14 Nordeste 0 927.7 1.2 64
2020-03-14 10:00:00 9.6 6 Este 13 Nordeste 0 927.6 1.7 78
2020-03-14 09:00:00 9.1 6 Nordeste 11 Nordeste 0 927.1 1.6 74
2020-03-14 08:00:00 7 3 Sur 5 Sur 0 926.5 0.9 82
2020-03-14 07:00:00 7.1 0 Calma 6 Nordeste 0 925.9 0.3 78
2020-03-14 06:00:00 7.8 3 Nordeste 6 Nordeste 0 925.5 -0.4 74
2020-03-14 05:00:00 8.6 0 Calma 5 Norte 0 925.6 -0.5 74
2020-03-14 04:00:00 8.8 2 Sur 4 Sur 0 925.6 -0.6 74
2020-03-14 03:00:00 10.2 0 Calma 4 Nordeste 0 925.9 -0.2 66
2020-03-14 02:00:00 10.5 0 Calma 5 Noroeste 0 926.1 -0.3 64
2020-03-14 01:00:00 10.5 2 Sudoeste 4 Sudoeste 0 926.2 0.5 58
2020-03-14 00:00:00 11 0 Calma 5 Noroeste 0 926.1 1.1 53
2020-03-13 23:00:00 11.6 3 Noroeste 6 Noroeste 0 926.4 2.1 46
2020-03-13 22:00:00 12.2 2 Sur 6 Sudoeste 0 925.7 2 42
2020-03-13 21:00:00 14.1 0 Calma 10 Noroeste 0 925 1.6 39
2020-03-13 20:00:00 14.5 6 Oeste 18 Sudoeste 0 924.3 1.2 34
2020-03-13 19:00:00 15.4 13 Sudoeste 22 Sudoeste 0 923.7 -0.3 32
2020-03-13 18:00:00 17.6 18 Sudoeste 26 Sudoeste 0 923.4 -0.1 28
2020-03-13 17:00:00 19.5 16 Sudoeste 28 Sudoeste 0 923.1 -1.1 26
2020-03-13 16:00:00 19.5 18 Sudoeste 24 Sudoeste 0 924 -1.2 28
2020-03-13 15:00:00 20.8 9 Sudoeste 19 Sudoeste 0 923.5 -2.1 28
2020-03-13 14:00:00 20.5 8 Sudoeste 18 Sudoeste 0 924.2 -1.7 30
2020-03-13 13:00:00 20.5 6 Sudeste 12 Sudeste 0 925.2 -0.7 32
2020-03-13 12:00:00 18 2 Norte 10 Este 0 925.6 -0.4 40
2020-03-13 11:00:00 14.9 4 Este 7 Este 0 925.9 0.5 51
2020-03-13 10:00:00 11.4 2 Nordeste 6 Nordeste 0 925.9 0.6 60
2020-03-13 09:00:00 8 5 Norte 9 Nordeste 0 926 0.8 70
2020-03-13 08:00:00 7 6 Nordeste 8 Nordeste 0 925.4 0.3 70
2020-03-13 07:00:00 7.4 4 Nordeste 6 Nordeste 0 925.3 0.1 68
2020-03-13 06:00:00 8.6 3 Este 5 Este 0 925.2 -0.5 63
2020-03-13 05:00:00 8.5 3 Norte 7 Norte 0 925.1 -0.9 62
2020-03-13 04:00:00 9.6 2 Este 5 Sudeste 0 925.2 -0.5 52
2020-03-13 03:00:00 10.2 4 Este 6 Este 0 925.7 -0.6 53
2020-03-13 02:00:00 10.6 0 Calma 7 Norte 0 926 0 52
2020-03-13 01:00:00 11.5 4 Este 8 Este 0 925.7 -0.3 48
2020-03-13 00:00:00 12.8 5 Nordeste 8 Este 0 926.3 0.7 46
2020-03-12 23:00:00 14 0 Calma 9 Oeste 0 926 0.2 43
2020-03-12 22:00:00 15 3 Sudoeste 9 Sudoeste 0 926 1 40
2020-03-12 21:00:00 15.6 6 Sudoeste 11 Sudoeste 0 925.6 0.4 40
2020-03-12 20:00:00 15.9 9 Sudoeste 16 Sudoeste 0 925.8 0.3 38
2020-03-12 19:00:00 17 14 Sudoeste 22 Sudoeste 0 925 -0.4 35
2020-03-12 18:00:00 20.7 18 Sudoeste 24 Sudoeste 0 925.2 -0.7 30
2020-03-12 17:00:00 22.3 14 Sudoeste 23 Sudoeste 0 925.5 -1.5 29
2020-03-12 16:00:00 22.5 13 Sur 24 Sur 0 925.4 -2.5 28
2020-03-12 15:00:00 23.1 15 Sudoeste 27 Sudoeste 0 925.9 -2.3 28
2020-03-12 14:00:00 22.4 17 Sudoeste 29 Sudoeste 0 927 -1.4 28
2020-03-12 13:00:00 22.8 12 Sudoeste 28 Sur 0 927.9 -0.6 28
2020-03-12 12:00:00 22.5 11 Sur 21 Sur 0 928.2 0 30
2020-03-12 11:00:00 20 4 Nordeste 11 Nordeste 0 928.4 0.9 38
2020-03-12 10:00:00 15.6 8 Este 14 Este 0 928.5 1.1 48
2020-03-12 09:00:00 13.4 10 Este 13 Sudeste 0 928.2 0.6 54
2020-03-12 08:00:00 8.2 3 Este 9 Nordeste 0 927.5 -0.5 62
2020-03-12 07:00:00 7.5 5 Nordeste 10 Nordeste 0 927.4 -1.6 62
2020-03-12 06:00:00 8.1 5 Nordeste 8 Nordeste 0 927.6 -1.9 59
2020-03-12 05:00:00 8.4 4 Norte 8 Este 0 928 -2 58
2020-03-12 04:00:00 9.7 7 Este 10 Este 0 929 -1.1 56
2020-03-12 03:00:00 8.9 5 Este 9 Este 0 929.5 -0.9 54
2020-03-12 02:00:00 11.4 6 Este 9 Este 0 930 -0.3 50
2020-03-12 01:00:00 12.3 2 Norte 10 Oeste 0 930.1 0.1 46
2020-03-12 00:00:00 11.7 8 Sudoeste 10 Oeste 0 930.4 0.7 42
2020-03-11 23:00:00 14.4 3 Sur 5 Nordeste 0 930.3 1.1 39
2020-03-11 22:00:00 15.4 0 Calma 8 Sur 0 930 0.2 37
2020-03-11 21:00:00 17.2 0 Calma 11 Norte 0 929.7 0.5 35
2020-03-11 20:00:00 19.1 5 Oeste 9 Oeste 0 929.2 -0.3 32
2020-03-11 19:00:00 20 5 Sur 10 Sur 0 929.8 0.3 32
2020-03-11 18:00:00 24.5 0 Calma 8 Noroeste 0 929.2 -1.1 25
2020-03-11 17:00:00 24.7 4 Norte 9 Nordeste 0 929.5 -1.4 24
2020-03-11 16:00:00 24.2 4 Nordeste 14 Sur 0 929.5 -2 24
2020-03-11 15:00:00 25.1 3 Sudoeste 12 Nordeste 0 930.3 -1.9 24
2020-03-11 14:00:00 24.1 2 Nordeste 12 Sudeste 0 930.9 -1.4 26
2020-03-11 13:00:00 23.9 4 Este 12 Este 0 931.5 -0.7 28
2020-03-11 12:00:00 22.2 8 Este 13 Este 0 932.2 0.1 30
2020-03-11 11:00:00 18.8 4 Nordeste 8 Nordeste 0 932.3 0.2 40
2020-03-11 10:00:00 13.9 4 Nordeste 11 Nordeste 0 932.2 0.3 53
2020-03-11 09:00:00 8.2 7 Nordeste 10 Nordeste 0 932.1 0 65
2020-03-11 08:00:00 6.8 6 Este 9 Nordeste 0 932.1 0 67
2020-03-11 07:00:00 5.8 7 Nordeste 10 Nordeste 0 931.9 -0.2 65
2020-03-11 06:00:00 8.8 2 Este 5 Este 0 932.1 -0.6 59
2020-03-11 05:00:00 7.8 0 Calma 2 Nordeste 0 932.1 -0.9 60
2020-03-11 04:00:00 7.8 3 Sur 6 Sudoeste 0 932.1 -0.8 61
2020-03-11 03:00:00 6.3 7 Sudoeste 8 Sudoeste 0 932.7 -0.8 60
2020-03-11 02:00:00 8.6 0 Calma 6 Sur 0 933 -0.1 55
2020-03-11 01:00:00 9.5 0 Calma 6 Norte 0 932.9 -0.3 56
2020-03-11 00:00:00 9.9 0 Calma 8 Nordeste 0 933.5 0 53
2020-03-10 23:00:00 10.4 3 Nordeste 7 Sudeste 0 933.1 0 48
2020-03-10 22:00:00 11.2 3 Sur 6 Nordeste 0 933.2 0.1 45
2020-03-10 21:00:00 13.6 4 Sur 6 Sur 0 933.5 0.9 41
2020-03-10 20:00:00 14.3 4 Sudoeste 12 Noroeste 0 933.1 0.1 38
2020-03-10 19:00:00 17.6 5 Noroeste 11 Oeste 0 933.1 0.3 33
2020-03-10 18:00:00 19.3 6 Oeste 15 Oeste 0 932.6 -0.5 31
2020-03-10 17:00:00 19.4 9 Oeste 16 Sudoeste 0 933 -0.7 31
2020-03-10 16:00:00 19.5 6 Norte 16 Norte 0 932.8 -1.6 31
2020-03-10 15:00:00 17.9 6 Norte 17 Nordeste 0 933.1 -1.7 32
2020-03-10 14:00:00 17.1 6 Norte 18 Nordeste 0 933.7 -0.8 32
2020-03-10 13:00:00 15.9 11 Norte 18 Nordeste 0 934.4 -0.1 34
2020-03-10 12:00:00 13.7 10 Nordeste 19 Nordeste 0 934.8 0.9 36
2020-03-10 11:00:00 12.5 9 Norte 15 Norte 0 934.5 0.5 40
2020-03-10 10:00:00 10.2 2 Norte 6 Nordeste 0 934.5 1.2 45
2020-03-10 09:00:00 5.6 3 Nordeste 5 Nordeste 0 933.9 0.6 57
2020-03-10 08:00:00 0.6 4 Sur 6 Noroeste 0 934 1.1 65
2020-03-10 07:00:00 2.5 3 Sur 5 Sudoeste 0 933.3 0.3 61
2020-03-10 06:00:00 3.8 0 Calma 3 Nordeste 0 933.3 -0.2 59
2020-03-10 05:00:00 3.2 3 Norte 6 Nordeste 0 932.9 -0.6 60
2020-03-10 04:00:00 4.7 3 Sudoeste 6 Sudoeste 0 933 -0.8 57
2020-03-10 03:00:00 3.9 4 Sudoeste 10 Oeste 0 933.5 -0.1 61
2020-03-10 02:00:00 4.8 4 Sudoeste 8 Oeste 0 933.5 0.1 62
2020-03-10 01:00:00 6.7 5 Oeste 9 Oeste 0 933.8 0.7 59
2020-03-10 00:00:00 6.2 4 Sudoeste 6 Oeste 0 933.6 1.7 54
2020-03-09 23:00:00 8.5 0 Calma 10 Oeste 0 933.4 2 47
2020-03-09 22:00:00 8.3 5 Oeste 24 Noroeste 0 933.1 1.9 43
2020-03-09 21:00:00 9.8 6 Noroeste 10 Oeste 0 931.9 1.1 41
2020-03-09 20:00:00 11.5 6 Noroeste 10 Noroeste 0 931.4 0.4 37
2020-03-09 19:00:00 13.3 6 Noroeste 18 Norte 0 931.2 -0.3 34
2020-03-09 18:00:00 13.6 13 Norte 31 Norte 0 930.8 -1.1 33
2020-03-09 17:00:00 15 12 Noroeste 33 Noroeste 0 931 -1.5 32
2020-03-09 16:00:00 14.8 8 Noroeste 20 Noroeste 0 931.5 -1.2 33
2020-03-09 15:00:00 14.8 8 Oeste 22 Sudoeste 0 931.9 -1.6 32
2020-03-09 14:00:00 14.4 8 Oeste 18 Sudoeste 0 932.5 -0.7 34
2020-03-09 13:00:00 13.2 5 Noroeste 14 Noroeste 0 932.7 -0.4 44
2020-03-09 12:00:00 11.3 7 Noroeste 15 Oeste 0 933.5 0.5 51
2020-03-09 11:00:00 11.2 3 Oeste 13 Oeste 0 933.2 1.1 56
2020-03-09 10:00:00 8.3 4 Oeste 8 Noroeste 0 933.1 0.7 66
2020-03-09 09:00:00 6.2 0 Calma 6 Nordeste 0 933 0.9 71
2020-03-09 08:00:00 2.2 4 Sudoeste 11 Oeste 0 932.1 0.2 79
2020-03-09 07:00:00 3.8 8 Oeste 13 Oeste 0 932.4 0.7 76
2020-03-09 06:00:00 4.2 7 Oeste 11 Oeste 0 932.1 -0.3 72
2020-03-09 05:00:00 4.6 7 Oeste 20 Oeste 0 931.9 -1 68
2020-03-09 04:00:00 4.7 14 Oeste 20 Oeste 0 931.7 -0.6 65
2020-03-09 03:00:00 5.5 10 Oeste 15 Oeste 0 932.4 0.1 60
2020-03-09 02:00:00 6.4 8 Oeste 19 Oeste 0 932.9 0.5 57
2020-03-09 01:00:00 7.1 8 Oeste 16 Oeste 0 932.3 -0.4 51
2020-03-09 00:00:00 6.4 10 Oeste 22 Oeste 0 932.3 0.9 48
2020-03-08 23:00:00 8.1 12 Oeste 19 Oeste 0 932.4 0.5 41
2020-03-08 22:00:00 8.9 12 Oeste 20 Oeste 0 932.7 1 38
2020-03-08 21:00:00 9.3 9 Sudoeste 18 Oeste 0 931.4 0 37
2020-03-08 20:00:00 10.2 12 Oeste 21 Oeste 0 931.9 1 34
2020-03-08 19:00:00 12.3 10 Oeste 30 Oeste 0 931.7 0.8 30
2020-03-08 18:00:00 14.9 17 Oeste 32 Oeste 0 931.4 0.1 23
2020-03-08 17:00:00 16.3 16 Oeste 32 Oeste 0 930.9 -0.9 22
2020-03-08 16:00:00 16.3 15 Oeste 30 Sudoeste 0 930.9 -1.6 26
2020-03-08 15:00:00 15.5 15 Oeste 27 Oeste 0 931.3 -2.1 26
2020-03-08 14:00:00 16 10 Oeste 25 Oeste 0 931.8 -1.5 31
2020-03-08 13:00:00 14.6 3 Noroeste 13 Sur 0 932.5 -0.7 37
2020-03-08 12:00:00 12.4 4 Oeste 10 Sudoeste 0 933.4 0.5 42
2020-03-08 11:00:00 10.5 2 Sudoeste 9 Sudoeste 0 933.3 0.5 46
2020-03-08 10:00:00 7.3 2 Norte 4 Nordeste 0 933.2 0.8 57
2020-03-08 09:00:00 2.3 4 Este 6 Este 0 932.9 0.4 66
2020-03-08 08:00:00 0.8 2 Nordeste 6 Nordeste 0 932.8 1.1 73
2020-03-08 07:00:00 0.7 2 Sur 5 Sudoeste 0 932.4 0.7 73
2020-03-08 06:00:00 0.5 0 Calma 6 Sudoeste 0 932.5 0 70
2020-03-08 05:00:00 0.2 4 Sudoeste 5 Sudoeste 0 931.7 -1.2 71
2020-03-08 04:00:00 2 3 Sur 6 Sudoeste 0 931.7 -0.9 70
2020-03-08 03:00:00 2.5 3 Oeste 4 Noroeste 0 932.5 -1.4 61
2020-03-08 02:00:00 3.6 0 Calma 3 Sudoeste 0 932.9 -0.6 59
2020-03-08 01:00:00 2.7 3 Sudoeste 6 Este 0 932.6 -0.6 59
2020-03-08 00:00:00 3.7 0 Calma 6 Este 0 933.9 1.3 55